createdAt,value
2022-09-27T00:01:33.066Z,98209.34
2022-09-27T00:04:01.644Z,98205.91
2022-09-27T00:06:31.588Z,98208.53
2022-09-27T00:09:00.670Z,98206.78
2022-09-27T00:11:31.657Z,98211.06
2022-09-27T00:14:00.471Z,98206.75
2022-09-27T00:16:31.384Z,98209.31
2022-09-27T00:19:00.962Z,98220.50
2022-09-27T00:21:30.565Z,98211.00
2022-09-27T00:23:59.229Z,98218.78
2022-09-27T00:26:27.317Z,98202.47
2022-09-27T00:28:55.275Z,98220.56
2022-09-27T00:31:25.055Z,98211.09
2022-09-27T00:33:54.966Z,98230.81
2022-09-27T00:36:23.933Z,98212.81
2022-09-27T00:38:51.621Z,98212.00
2022-09-27T00:41:22.001Z,98205.91
2022-09-27T00:43:51.845Z,98211.03
2022-09-27T00:46:27.571Z,98207.63
2022-09-27T00:49:04.504Z,98205.97
2022-09-27T00:51:35.395Z,98218.78
2022-09-27T00:54:03.882Z,98207.69
2022-09-27T00:56:33.372Z,98199.97
2022-09-27T00:59:07.781Z,98196.53
2022-09-27T01:01:36.038Z,98203.44
2022-09-27T01:04:09.002Z,98190.53
2022-09-27T01:06:37.432Z,98199.94
2022-09-27T01:09:06.137Z,98196.47
2022-09-27T01:11:42.450Z,98191.28
2022-09-27T01:14:39.543Z,98191.25
2022-09-27T01:17:23.337Z,98193.84
2022-09-27T01:20:24.991Z,98202.41
2022-09-27T01:23:07.054Z,98199.88
2022-09-27T01:25:52.071Z,98230.88
2022-09-27T01:28:26.450Z,98221.41
2022-09-27T01:31:04.151Z,98230.03
2022-09-27T01:33:44.493Z,98225.84
2022-09-27T01:36:21.922Z,98230.13
2022-09-27T01:39:02.723Z,98223.28
2022-09-27T01:41:49.372Z,98226.72
2022-09-27T01:44:36.740Z,98231.88
2022-09-27T01:47:16.264Z,98231.06
2022-09-27T01:49:57.887Z,98231.91
2022-09-27T01:52:33.071Z,98231.88
2022-09-27T01:55:05.271Z,98231.94
2022-09-27T01:57:56.724Z,98228.50
2022-09-27T02:00:26.864Z,98240.47
2022-09-27T02:03:01.222Z,98243.97
2022-09-27T02:05:36.948Z,98251.69
2022-09-27T02:08:23.908Z,98250.81
2022-09-27T02:10:57.853Z,98252.53
2022-09-27T02:13:34.084Z,98249.06
2022-09-27T02:16:29.578Z,98256.78
2022-09-27T02:19:11.332Z,98261.06
2022-09-27T02:21:46.461Z,98266.19
2022-09-27T02:24:20.545Z,98259.34
2022-09-27T02:26:57.914Z,98269.69
2022-09-27T02:29:35.220Z,98270.53
2022-09-27T02:32:03.312Z,98256.78
2022-09-27T02:34:37.384Z,98271.38
2022-09-27T02:37:05.390Z,98262.84
2022-09-27T02:39:33.181Z,98259.38
2022-09-27T02:42:06.201Z,98266.22
2022-09-27T02:44:34.845Z,98263.72
2022-09-27T02:47:20.901Z,98267.13
2022-09-27T02:50:01.006Z,98271.38
2022-09-27T02:53:07.901Z,98270.50
2022-09-27T02:55:49.557Z,98273.09
2022-09-27T02:58:56.601Z,98285.97
2022-09-27T03:01:49.730Z,98276.56
2022-09-27T03:04:39.368Z,98295.44
2022-09-27T03:07:08.788Z,98284.28
2022-09-27T03:09:44.383Z,98281.72
2022-09-27T03:12:12.783Z,98297.16
2022-09-27T03:14:40.506Z,98281.72
2022-09-27T03:17:28.240Z,98285.16
2022-09-27T03:20:14.411Z,98293.72
2022-09-27T03:22:57.319Z,98292.03
2022-09-27T03:25:25.022Z,98297.16
2022-09-27T03:27:52.651Z,98298.03
2022-09-27T03:30:20.360Z,98296.31
2022-09-27T03:32:48.678Z,98304.06
2022-09-27T03:35:35.037Z,98304.88
2022-09-27T03:38:04.208Z,98298.00
2022-09-27T03:40:31.933Z,98309.19
2022-09-27T03:42:59.705Z,98317.78
2022-09-27T03:45:27.681Z,98310.03
2022-09-27T03:47:58.056Z,98317.78
2022-09-27T03:50:26.357Z,98314.34
2022-09-27T03:52:54.549Z,98320.34
2022-09-27T03:55:23.993Z,98311.75
2022-09-27T03:57:51.919Z,98322.06
2022-09-27T04:00:20.729Z,98307.47
2022-09-27T04:02:48.847Z,98316.91
2022-09-27T04:05:36.666Z,98311.75
2022-09-27T04:08:08.240Z,98321.22
2022-09-27T04:10:37.413Z,98339.22
2022-09-27T04:13:05.671Z,98316.91
2022-09-27T04:15:39.344Z,98320.34
2022-09-27T04:18:25.541Z,98332.34
2022-09-27T04:20:58.845Z,98331.50
2022-09-27T04:23:30.170Z,98330.66
2022-09-27T04:25:59.705Z,98346.94
2022-09-27T04:28:54.518Z,98346.09
2022-09-27T04:31:22.801Z,98340.06
2022-09-27T04:34:45.832Z,98341.81
2022-09-27T04:37:13.879Z,98346.94
2022-09-27T04:39:45.569Z,98343.50
2022-09-27T04:42:14.779Z,98352.09
2022-09-27T04:44:42.725Z,98348.66
2022-09-27T04:47:10.694Z,98349.53
2022-09-27T04:49:39.152Z,98350.38
2022-09-27T04:52:06.960Z,98358.94
2022-09-27T04:54:34.920Z,98367.53
2022-09-27T04:57:12.169Z,98364.94
2022-09-27T04:59:42.722Z,98374.41
2022-09-27T05:02:10.659Z,98370.09
2022-09-27T05:05:10.549Z,98371.84
2022-09-27T05:07:41.552Z,98383.81
2022-09-27T05:10:15.029Z,98386.38
2022-09-27T05:12:42.684Z,98389.81
2022-09-27T05:15:14.625Z,98393.28
2022-09-27T05:18:00.939Z,98394.13
2022-09-27T05:20:52.727Z,98402.69
2022-09-27T05:23:27.580Z,98406.13
2022-09-27T05:25:56.421Z,98402.69
2022-09-27T05:28:25.091Z,98422.41
2022-09-27T05:30:54.133Z,98417.25
2022-09-27T05:33:22.475Z,98420.69
2022-09-27T05:35:54.537Z,98425.84
2022-09-27T05:38:25.730Z,98424.13
2022-09-27T05:40:56.772Z,98437.84
2022-09-27T05:43:25.538Z,98439.56
2022-09-27T05:45:55.314Z,98448.13
2022-09-27T05:48:24.711Z,98450.72
2022-09-27T05:50:57.178Z,98443.00
2022-09-27T05:53:25.077Z,98435.25
2022-09-27T05:55:53.359Z,98441.28
2022-09-27T05:58:28.700Z,98442.97
2022-09-27T06:01:12.147Z,98447.28
2022-09-27T06:04:00.052Z,98449.84
2022-09-27T06:06:54.357Z,98458.44
2022-09-27T06:09:22.149Z,98456.72
2022-09-27T06:11:51.116Z,98469.56
2022-09-27T06:14:19.514Z,98463.56
2022-09-27T06:17:01.198Z,98465.28
2022-09-27T06:19:35.564Z,98465.28
2022-09-27T06:22:03.285Z,98478.13
2022-09-27T06:24:39.845Z,98474.72
2022-09-27T06:27:16.018Z,98472.16
2022-09-27T06:29:50.813Z,98477.28
2022-09-27T06:32:33.648Z,98477.25
2022-09-27T06:35:16.988Z,98485.75
2022-09-27T06:37:44.737Z,98506.31
2022-09-27T06:40:12.416Z,98494.34
2022-09-27T06:43:11.071Z,98504.66
2022-09-27T06:46:06.062Z,98496.00
2022-09-27T06:49:07.509Z,98509.72
2022-09-27T06:51:35.825Z,98516.63
2022-09-27T06:54:03.654Z,98515.84
2022-09-27T06:56:31.894Z,98516.72
2022-09-27T06:59:17.244Z,98521.78
2022-09-27T07:02:05.001Z,98530.34
2022-09-27T07:05:10.128Z,98538.13
2022-09-27T07:08:11.846Z,98537.28
2022-09-27T07:10:41.220Z,98541.53
2022-09-27T07:13:10.589Z,98544.97
2022-09-27T07:15:41.379Z,98536.41
2022-09-27T07:18:12.891Z,98541.50
2022-09-27T07:20:42.169Z,98550.19
2022-09-27T07:23:11.890Z,98550.19
2022-09-27T07:25:40.717Z,98553.66
2022-09-27T07:28:13.203Z,98555.38
2022-09-27T07:30:41.540Z,98556.22
2022-09-27T07:33:10.129Z,98549.34
2022-09-27T07:35:42.147Z,98554.53
2022-09-27T07:38:13.118Z,98554.53
2022-09-27T07:40:42.244Z,98562.25
2022-09-27T07:43:13.246Z,98563.13
2022-09-27T07:45:42.034Z,98569.13
2022-09-27T07:48:17.693Z,98576.00
2022-09-27T07:51:00.954Z,98591.41
2022-09-27T07:53:46.837Z,98593.97
2022-09-27T07:56:34.160Z,98605.97
2022-09-27T07:59:02.513Z,98600.00
2022-09-27T08:01:30.960Z,98599.16
2022-09-27T08:03:59.463Z,98601.78
2022-09-27T08:06:28.600Z,98606.06
2022-09-27T08:08:57.619Z,98599.16
2022-09-27T08:11:27.019Z,98603.44
2022-09-27T08:13:56.996Z,98616.38
2022-09-27T08:16:29.515Z,98606.06
2022-09-27T08:19:16.929Z,98612.06
2022-09-27T08:21:59.512Z,98625.78
2022-09-27T08:24:53.268Z,98615.50
2022-09-27T08:27:40.307Z,98602.63
2022-09-27T08:30:28.272Z,98609.50
2022-09-27T08:32:57.050Z,98618.06
2022-09-27T08:35:26.550Z,98609.47
2022-09-27T08:37:57.037Z,98615.50
2022-09-27T08:40:28.041Z,98621.53
2022-09-27T08:43:05.040Z,98609.47
2022-09-27T08:45:37.228Z,98622.34
2022-09-27T08:48:06.965Z,98618.91
2022-09-27T08:50:40.275Z,98617.19
2022-09-27T08:53:21.959Z,98617.22
2022-09-27T08:55:52.342Z,98614.59
2022-09-27T08:58:28.015Z,98612.78
2022-09-27T09:01:00.243Z,98611.88
2022-09-27T09:03:34.911Z,98611.91
2022-09-27T09:06:15.941Z,98616.94
2022-09-27T09:08:55.408Z,98618.75
2022-09-27T09:11:53.608Z,98622.31
2022-09-27T09:14:34.014Z,98621.50
2022-09-27T09:17:13.367Z,98618.03
2022-09-27T09:20:17.671Z,98618.84
2022-09-27T09:23:23.465Z,98610.28
2022-09-27T09:26:01.753Z,98616.16
2022-09-27T09:28:39.706Z,98603.31
2022-09-27T09:31:13.784Z,98598.94
2022-09-27T09:33:48.106Z,98595.44
2022-09-27T09:36:26.261Z,98586.72
2022-09-27T09:38:57.649Z,98592.81
2022-09-27T09:41:31.992Z,98586.78
2022-09-27T09:44:03.274Z,98586.66
2022-09-27T09:46:36.442Z,98584.00
2022-09-27T09:49:10.927Z,98590.78
2022-09-27T09:51:43.209Z,98580.13
2022-09-27T09:54:20.609Z,98581.25
2022-09-27T09:56:56.659Z,98595.03
2022-09-27T09:59:28.880Z,98598.75
2022-09-27T10:02:08.832Z,98598.84
2022-09-27T10:04:36.658Z,98584.28
2022-09-27T10:07:04.405Z,98597.31
2022-09-27T10:09:36.373Z,98597.25
2022-09-27T10:12:36.401Z,98595.66
2022-09-27T10:15:06.397Z,98591.28
2022-09-27T10:17:38.146Z,98581.84
2022-09-27T10:20:09.441Z,98580.88
2022-09-27T10:22:43.721Z,98578.19
2022-09-27T10:25:47.357Z,98578.25
2022-09-27T10:28:38.043Z,98574.84
2022-09-27T10:31:08.283Z,98572.31
2022-09-27T10:33:54.689Z,98568.84
2022-09-27T10:36:26.308Z,98574.06
2022-09-27T10:38:55.579Z,98576.72
2022-09-27T10:41:46.133Z,98574.06
2022-09-27T10:44:35.400Z,98573.28
2022-09-27T10:47:27.048Z,98568.16
2022-09-27T10:50:46.041Z,98585.31
2022-09-27T10:53:23.354Z,98599.19
2022-09-27T10:56:05.330Z,98616.38
2022-09-27T10:58:36.873Z,98613.75
2022-09-27T11:01:12.238Z,98603.41
2022-09-27T11:04:01.168Z,98590.41
2022-09-27T11:06:37.995Z,98578.34
2022-09-27T11:09:23.271Z,98588.66
2022-09-27T11:12:06.330Z,98577.34
2022-09-27T11:14:35.733Z,98579.91
2022-09-27T11:17:11.064Z,98567.94
2022-09-27T11:19:59.777Z,98591.91
2022-09-27T11:22:54.819Z,98597.06
2022-09-27T11:25:35.030Z,98589.22
2022-09-27T11:28:11.640Z,98592.59
2022-09-27T11:30:50.763Z,98602.94
2022-09-27T11:34:02.857Z,98589.25
2022-09-27T11:36:54.586Z,98593.50
2022-09-27T11:39:30.298Z,98598.69
2022-09-27T11:42:14.158Z,98592.50
2022-09-27T11:45:27.852Z,98590.91
2022-09-27T11:48:01.801Z,98587.50
2022-09-27T11:50:58.283Z,98572.91
2022-09-27T11:53:53.118Z,98590.84
2022-09-27T11:56:36.981Z,98567.66
2022-09-27T11:59:25.107Z,98567.75
2022-09-27T12:02:00.640Z,98551.44
2022-09-27T12:04:57.463Z,98543.00
2022-09-27T12:07:34.998Z,98550.06
2022-09-27T12:10:10.404Z,98549.19
2022-09-27T12:12:41.493Z,98554.44
2022-09-27T12:15:16.832Z,98550.19
2022-09-27T12:17:47.440Z,98539.91
2022-09-27T12:20:22.212Z,98542.47
2022-09-27T12:22:59.582Z,98539.03
2022-09-27T12:26:02.280Z,98539.06
2022-09-27T12:28:37.145Z,98532.22
2022-09-27T12:31:28.385Z,98526.19
2022-09-27T12:34:05.756Z,98533.09
2022-09-27T12:36:38.289Z,98524.38
2022-09-27T12:39:15.123Z,98531.88
2022-09-27T12:41:52.524Z,98526.63
2022-09-27T12:44:39.777Z,98526.28
2022-09-27T12:47:14.791Z,98535.91
2022-09-27T12:49:57.646Z,98529.84
2022-09-27T12:52:34.344Z,98534.84
2022-09-27T12:55:18.197Z,98528.88
2022-09-27T12:58:01.011Z,98529.06
2022-09-27T13:00:38.858Z,98539.38
2022-09-27T13:03:26.119Z,98526.31
2022-09-27T13:06:24.927Z,98538.75
2022-09-27T13:09:08.281Z,98539.56
2022-09-27T13:11:47.283Z,98522.25
2022-09-27T13:14:21.388Z,98538.75
2022-09-27T13:16:51.289Z,98529.41
2022-09-27T13:19:39.916Z,98521.53
2022-09-27T13:22:09.966Z,98513.50
2022-09-27T13:24:56.179Z,98520.91
2022-09-27T13:27:43.977Z,98516.34
2022-09-27T13:30:50.070Z,98524.28
2022-09-27T13:33:40.439Z,98520.53
2022-09-27T13:36:28.308Z,98521.16
2022-09-27T13:39:06.048Z,98506.56
2022-09-27T13:42:04.673Z,98511.06
2022-09-27T13:44:47.059Z,98506.88
2022-09-27T13:47:27.483Z,98517.16
2022-09-27T13:50:05.037Z,98503.69
2022-09-27T13:52:56.709Z,98504.69
2022-09-27T13:55:43.803Z,98506.03
2022-09-27T13:58:48.251Z,98499.56
2022-09-27T14:01:41.165Z,98498.03
2022-09-27T14:04:19.699Z,98506.66
2022-09-27T14:06:51.476Z,98518.97
2022-09-27T14:09:22.350Z,98519.81
2022-09-27T14:12:03.716Z,98526.78
2022-09-27T14:14:34.681Z,98508.00
2022-09-27T14:17:06.584Z,98511.47
2022-09-27T14:19:42.159Z,98514.06
2022-09-27T14:22:15.438Z,98511.56
2022-09-27T14:24:57.973Z,98505.47
2022-09-27T14:27:35.438Z,98493.38
2022-09-27T14:30:17.045Z,98477.38
2022-09-27T14:32:50.441Z,98480.16
2022-09-27T14:35:46.666Z,98481.06
2022-09-27T14:38:36.625Z,98495.47
2022-09-27T14:41:08.847Z,98492.19
2022-09-27T14:43:37.756Z,98497.19
2022-09-27T14:46:07.364Z,98500.13
2022-09-27T14:48:38.665Z,98496.56
2022-09-27T14:51:20.846Z,98500.50
2022-09-27T14:53:50.608Z,98485.91
2022-09-27T14:56:22.443Z,98494.38
2022-09-27T14:58:56.404Z,98501.66
2022-09-27T15:01:24.295Z,98501.56
2022-09-27T15:03:53.442Z,98506.06
2022-09-27T15:06:24.656Z,98510.81
2022-09-27T15:08:53.989Z,98522.53
2022-09-27T15:11:21.845Z,98510.38
2022-09-27T15:13:52.915Z,98506.28
2022-09-27T15:16:24.315Z,98514.72
2022-09-27T15:19:00.720Z,98497.59
2022-09-27T15:21:32.056Z,98500.25
2022-09-27T15:24:00.197Z,98499.31
2022-09-27T15:26:37.348Z,98500.00
2022-09-27T15:29:05.534Z,98493.47
2022-09-27T15:31:35.047Z,98497.16
2022-09-27T15:34:04.201Z,98500.13
2022-09-27T15:37:00.087Z,98499.38
2022-09-27T15:39:30.117Z,98501.63
2022-09-27T15:42:06.749Z,98507.19
2022-09-27T15:44:40.749Z,98498.50
2022-09-27T15:47:41.344Z,98503.41
2022-09-27T15:50:33.056Z,98508.00
2022-09-27T15:53:05.427Z,98505.97
2022-09-27T15:55:37.125Z,98516.56
2022-09-27T15:58:08.085Z,98516.16
2022-09-27T16:00:36.867Z,98517.03
2022-09-27T16:03:04.979Z,98515.63
2022-09-27T16:05:33.130Z,98520.41
2022-09-27T16:08:02.539Z,98522.13
2022-09-27T16:10:37.543Z,98528.25
2022-09-27T16:13:05.116Z,98527.56
2022-09-27T16:15:32.758Z,98523.19
2022-09-27T16:18:00.643Z,98524.09
2022-09-27T16:20:28.684Z,98528.47
2022-09-27T16:22:56.996Z,98531.06
2022-09-27T16:25:26.214Z,98534.59
2022-09-27T16:27:53.776Z,98537.16
2022-09-27T16:30:22.729Z,98539.78
2022-09-27T16:32:50.410Z,98540.63
2022-09-27T16:35:19.420Z,98554.41
2022-09-27T16:37:47.136Z,98552.69
2022-09-27T16:40:17.936Z,98549.25
2022-09-27T16:42:49.580Z,98560.44
2022-09-27T16:45:19.404Z,98564.78
2022-09-27T16:47:48.356Z,98564.81
2022-09-27T16:50:34.131Z,98573.41
2022-09-27T16:53:01.685Z,98567.41
2022-09-27T16:55:30.188Z,98571.69
2022-09-27T16:58:00.508Z,98576.88
2022-09-27T17:00:28.323Z,98575.13
2022-09-27T17:02:56.218Z,98573.44
2022-09-27T17:05:23.758Z,98571.69
2022-09-27T17:07:52.441Z,98568.28
2022-09-27T17:10:20.387Z,98581.16
2022-09-27T17:12:48.075Z,98580.28
2022-09-27T17:15:18.020Z,98579.44
2022-09-27T17:17:49.258Z,98573.41
2022-09-27T17:20:17.549Z,98575.97
2022-09-27T17:22:45.230Z,98578.53
2022-09-27T17:25:12.809Z,98588.00
2022-09-27T17:27:40.336Z,98576.81
2022-09-27T17:30:09.229Z,98583.69
2022-09-27T17:32:38.471Z,98584.53
2022-09-27T17:35:09.594Z,98608.50
2022-09-27T17:37:37.331Z,98588.75
2022-09-27T17:40:05.585Z,98583.59
2022-09-27T17:42:33.548Z,98588.72
2022-09-27T17:45:01.055Z,98593.00
2022-09-27T17:47:46.661Z,98587.84
2022-09-27T17:50:28.673Z,98592.13
2022-09-27T17:52:58.799Z,98596.34
2022-09-27T17:55:26.952Z,98592.84
2022-09-27T17:57:54.624Z,98592.81
2022-09-27T18:00:22.281Z,98596.28
2022-09-27T18:02:49.862Z,98594.53
2022-09-27T18:05:21.072Z,98591.06
2022-09-27T18:07:48.684Z,98591.00
2022-09-27T18:10:17.616Z,98588.44
2022-09-27T18:12:45.291Z,98590.16
2022-09-27T18:15:13.049Z,98591.78
2022-09-27T18:17:40.586Z,98586.66
2022-09-27T18:20:08.851Z,98590.97
2022-09-27T18:22:38.768Z,98597.75
2022-09-27T18:25:07.313Z,98611.50
2022-09-27T18:27:34.836Z,98596.94
2022-09-27T18:30:03.285Z,98597.75
2022-09-27T18:32:30.876Z,98601.16
2022-09-27T18:34:58.383Z,98607.09
2022-09-27T18:37:26.872Z,98605.41
2022-09-27T18:39:56.103Z,98609.69
2022-09-27T18:42:23.716Z,98600.25
2022-09-27T18:44:51.342Z,98600.25
2022-09-27T18:47:19.150Z,98595.94
2022-09-27T18:49:46.765Z,98601.94
2022-09-27T18:52:14.701Z,98604.50
2022-09-27T18:54:43.562Z,98602.81
2022-09-27T18:57:12.474Z,98603.69
2022-09-27T18:59:40.038Z,98595.13
2022-09-27T19:02:07.682Z,98601.97
2022-09-27T19:04:35.268Z,98595.09
2022-09-27T19:07:03.083Z,98599.38
2022-09-27T19:09:31.227Z,98607.97
2022-09-27T19:11:58.828Z,98603.69
2022-09-27T19:14:27.973Z,98602.00
2022-09-27T19:16:56.643Z,98595.16
2022-09-27T19:19:24.325Z,98602.00
2022-09-27T19:21:51.913Z,98607.22
2022-09-27T19:24:19.590Z,98604.66
2022-09-27T19:26:47.264Z,98602.09
2022-09-27T19:29:14.894Z,98602.97
2022-09-27T19:31:44.046Z,98597.84
2022-09-27T19:34:11.806Z,98600.44
2022-09-27T19:36:39.405Z,98598.72
2022-09-27T19:39:06.966Z,98597.84
2022-09-27T19:41:34.548Z,98586.69
2022-09-27T19:44:02.824Z,98584.13
2022-09-27T19:46:30.433Z,98588.44
2022-09-27T19:49:01.001Z,98585.88
2022-09-27T19:51:29.159Z,98570.41
2022-09-27T19:53:56.781Z,98583.28
2022-09-27T19:56:25.700Z,98578.13
2022-09-27T19:58:53.305Z,98584.94
2022-09-27T20:01:22.629Z,98577.19
2022-09-27T20:03:52.284Z,98576.31
2022-09-27T20:06:22.113Z,98579.75
2022-09-27T20:08:50.269Z,98578.03
2022-09-27T20:11:19.344Z,98568.59
2022-09-27T20:13:46.952Z,98560.91
2022-09-27T20:16:15.896Z,98554.09
2022-09-27T20:18:45.106Z,98555.81
2022-09-27T20:21:13.374Z,98560.09
2022-09-27T20:23:42.294Z,98557.53
2022-09-27T20:26:11.672Z,98566.97
2022-09-27T20:28:41.866Z,98554.13
2022-09-27T20:31:11.141Z,98562.69
2022-09-27T20:33:49.652Z,98567.00
2022-09-27T20:36:18.935Z,98557.53
2022-09-27T20:38:49.574Z,98548.16
2022-09-27T20:41:19.461Z,98549.00
2022-09-27T20:43:47.742Z,98545.59
2022-09-27T20:46:17.396Z,98546.47
2022-09-27T20:48:46.531Z,98545.63
2022-09-27T20:51:15.213Z,98540.50
2022-09-27T20:53:44.549Z,98537.06
2022-09-27T20:56:19.543Z,98535.34
2022-09-27T20:58:48.071Z,98532.78
2022-09-27T21:01:16.289Z,98531.91
2022-09-27T21:03:43.822Z,98537.09
2022-09-27T21:06:12.839Z,98531.91
2022-09-27T21:08:41.433Z,98530.22
2022-09-27T21:11:10.527Z,98528.53
2022-09-27T21:13:40.763Z,98527.66
2022-09-27T21:16:10.238Z,98521.63
2022-09-27T21:18:38.208Z,98515.66
2022-09-27T21:21:08.548Z,98506.22
2022-09-27T21:23:42.023Z,98510.53
2022-09-27T21:26:14.354Z,98502.78
2022-09-27T21:28:44.643Z,98507.13
2022-09-27T21:31:17.644Z,98492.53
2022-09-27T21:33:48.971Z,98499.38
2022-09-27T21:36:16.574Z,98499.41
2022-09-27T21:38:44.139Z,98503.69
2022-09-27T21:41:14.528Z,98502.81
2022-09-27T21:43:45.027Z,98501.13
2022-09-27T21:46:14.334Z,98494.28
2022-09-27T21:48:44.109Z,98492.56
2022-09-27T21:51:14.355Z,98487.44
2022-09-27T21:53:43.604Z,98481.47
2022-09-27T21:56:12.569Z,98464.34
2022-09-27T21:58:42.813Z,98465.16
2022-09-27T22:01:12.459Z,98460.03
2022-09-27T22:03:42.563Z,98455.78
2022-09-27T22:06:12.273Z,98454.06
2022-09-27T22:08:39.834Z,98448.88
2022-09-27T22:11:08.534Z,98447.19
2022-09-27T22:13:36.347Z,98430.88
2022-09-27T22:16:06.492Z,98427.47
2022-09-27T22:18:37.253Z,98422.34
2022-09-27T22:21:06.651Z,98424.03
2022-09-27T22:23:34.624Z,98418.91
2022-09-27T22:26:12.921Z,98404.31
2022-09-27T22:28:40.477Z,98388.91
2022-09-27T22:31:10.816Z,98391.47
2022-09-27T22:33:38.603Z,98388.03
2022-09-27T22:36:06.679Z,98391.47
2022-09-27T22:38:34.519Z,98389.75
2022-09-27T22:41:03.212Z,98381.19
2022-09-27T22:43:30.828Z,98369.19
2022-09-27T22:46:00.103Z,98365.75
2022-09-27T22:48:29.269Z,98367.47
2022-09-27T22:50:57.787Z,98362.34
2022-09-27T22:53:25.719Z,98356.34
2022-09-27T22:56:01.820Z,98345.19
2022-09-27T22:58:32.146Z,98342.63
2022-09-27T23:01:00.269Z,98328.03
2022-09-27T23:03:29.236Z,98324.63
2022-09-27T23:06:02.201Z,98323.78
2022-09-27T23:08:30.047Z,98332.34
2022-09-27T23:11:03.354Z,98324.63
2022-09-27T23:13:32.588Z,98316.06
2022-09-27T23:16:04.538Z,98316.06
2022-09-27T23:18:34.041Z,98316.91
2022-09-27T23:21:03.535Z,98304.91
2022-09-27T23:23:31.921Z,98299.78
2022-09-27T23:26:01.184Z,98302.31
2022-09-27T23:28:29.781Z,98292.03
2022-09-27T23:30:57.560Z,98287.78
2022-09-27T23:33:27.817Z,98276.66
2022-09-27T23:35:56.645Z,98274.94
2022-09-27T23:38:24.181Z,98271.50
2022-09-27T23:40:51.836Z,98268.09
2022-09-27T23:43:19.400Z,98256.94
2022-09-27T23:45:46.872Z,98248.38
2022-09-27T23:48:14.388Z,98244.09
2022-09-27T23:50:44.112Z,98241.53
2022-09-27T23:53:12.973Z,98235.53
2022-09-27T23:55:40.582Z,98237.22
2022-09-27T23:58:08.140Z,98226.13
